Time;durP1;ratioP1;P1;durP2;ratioP2;P2;SDS_P1;SDS_P2;PMS_P1;PMS_P2;Temp;Humidity;BMP_temperature;BMP_pressure;BME280_temperature;BME280_humidity;BME280_pressure;Samples;Min_cycle;Max_cycle;Signal;HPM_P1;HPM_P2
2022/09/13 00:02:24;;;;;;;29.80;23.80;;;;;;;;;;4333600;33;20028;-70
2022/09/13 00:04:50;;;;;;;27.48;24.00;;;;;;;;;;4346799;33;20085;-70
2022/09/13 00:07:15;;;;;;;25.92;22.52;;;;;;;;;;4346436;33;20095;-71
2022/09/13 00:09:41;;;;;;;23.77;21.37;;;;;;;;;;4347085;33;20030;-70
2022/09/13 00:12:06;;;;;;;28.15;23.20;;;;;;;;;;4346785;33;20059;-70
2022/09/13 00:14:31;;;;;;;27.52;24.42;;;;;;;;;;4348213;33;20345;-70
2022/09/13 00:17:10;;;;;;;26.20;23.42;;;;;;;;;;4348086;33;20102;-70
2022/09/13 00:19:36;;;;;;;25.55;22.35;;;;;;;;;;4344792;33;20507;-70
2022/09/13 00:22:01;;;;;;;26.23;22.17;;;;;;;;;;4346828;33;20032;-70
2022/09/13 00:24:27;;;;;;;23.20;20.12;;;;;;;;;;4347110;33;20147;-70
2022/09/13 00:26:52;;;;;;;25.92;21.05;;;;;;;;;;4346739;33;20046;-70
2022/09/13 00:29:17;;;;;;;20.67;18.58;;;;;;;;;;4346538;33;20075;-70
2022/09/13 00:31:42;;;;;;;25.88;21.87;;;;;;;;;;4333598;33;20066;-70
2022/09/13 00:34:08;;;;;;;25.20;22.52;;;;;;;;;;4346601;33;20019;-70
2022/09/13 00:36:33;;;;;;;21.70;18.75;;;;;;;;;;4346873;33;20036;-70
2022/09/13 00:38:59;;;;;;;27.05;20.80;;;;;;;;;;4346619;33;20035;-71
2022/09/13 00:41:27;;;;;;;23.05;19.90;;;;;;;;;;4345918;33;20048;-70
2022/09/13 00:43:56;;;;;;;25.00;19.48;;;;;;;;;;4346790;33;20188;-71
2022/09/13 00:46:24;;;;;;;24.00;20.65;;;;;;;;;;4346647;33;20028;-71
2022/09/13 00:48:52;;;;;;;21.17;18.85;;;;;;;;;;4346100;33;20051;-70
2022/09/13 00:51:17;;;;;;;21.02;18.40;;;;;;;;;;4345974;33;20057;-70
2022/09/13 00:53:44;;;;;;;20.30;15.73;;;;;;;;;;4346459;33;20418;-70
2022/09/13 00:56:26;;;;;;;18.17;15.70;;;;;;;;;;4346947;33;20086;-70
2022/09/13 00:58:57;;;;;;;19.62;15.65;;;;;;;;;;4346537;33;20032;-70
2022/09/13 01:01:25;;;;;;;17.92;14.77;;;;;;;;;;4346346;33;20061;-71
2022/09/13 01:03:50;;;;;;;18.83;16.62;;;;;;;;;;4346297;33;20474;-70
2022/09/13 01:06:21;;;;;;;19.33;14.98;;;;;;;;;;4346478;32;20046;-70
2022/09/13 01:08:48;;;;;;;18.92;13.80;;;;;;;;;;4347257;33;20024;-70
2022/09/13 01:11:26;;;;;;;17.75;14.98;;;;;;;;;;4345668;33;20039;-70
2022/09/13 01:13:51;;;;;;;17.45;14.07;;;;;;;;;;4346819;33;20031;-70
2022/09/13 01:16:17;;;;;;;19.02;13.35;;;;;;;;;;4346309;33;20094;-70
2022/09/13 01:18:42;;;;;;;16.52;13.73;;;;;;;;;;4345594;33;20031;-70
2022/09/13 01:21:26;;;;;;;17.67;14.93;;;;;;;;;;4345795;33;20053;-70
2022/09/13 01:24:05;;;;;;;17.23;13.32;;;;;;;;;;4347122;33;20023;-70
2022/09/13 01:27:07;;;;;;;15.02;13.52;;;;;;;;;;4346727;33;20090;-70
2022/09/13 01:29:54;;;;;;;17.67;13.70;;;;;;;;;;4346042;33;20107;-70
2022/09/13 01:32:28;;;;;;;17.25;13.30;;;;;;;;;;4347317;33;20032;-70
2022/09/13 01:35:06;;;;;;;17.58;14.30;;;;;;;;;;4346778;33;20027;-70
2022/09/13 01:37:38;;;;;;;16.40;14.13;;;;;;;;;;4345832;33;20023;-70
2022/09/13 01:40:16;;;;;;;19.10;15.07;;;;;;;;;;4346232;33;20058;-71
2022/09/13 01:42:46;;;;;;;16.58;13.90;;;;;;;;;;4346143;33;20024;-70
2022/09/13 01:45:23;;;;;;;16.55;13.35;;;;;;;;;;4346526;33;20067;-70
2022/09/13 01:48:02;;;;;;;16.17;13.10;;;;;;;;;;4346454;33;20098;-71
2022/09/13 01:50:30;;;;;;;15.60;13.38;;;;;;;;;;4345797;33;20455;-71
2022/09/13 01:52:58;;;;;;;15.75;14.13;;;;;;;;;;4346445;33;20023;-70
2022/09/13 01:55:33;;;;;;;16.83;14.57;;;;;;;;;;4346143;33;20085;-71
2022/09/13 01:58:08;;;;;;;18.87;14.63;;;;;;;;;;4347012;33;20057;-70
2022/09/13 02:00:36;;;;;;;15.70;13.53;;;;;;;;;;4345735;33;20027;-70
2022/09/13 02:03:09;;;;;;;17.27;13.50;;;;;;;;;;4339126;33;20170;-70
2022/09/13 02:05:34;;;;;;;18.05;14.18;;;;;;;;;;4345726;33;20099;-71
2022/09/13 02:08:02;;;;;;;18.65;15.13;;;;;;;;;;4345433;33;20453;-70
2022/09/13 02:10:32;;;;;;;17.37;14.63;;;;;;;;;;4345584;33;20074;-70
2022/09/13 02:12:58;;;;;;;16.70;13.30;;;;;;;;;;4345662;33;20091;-70
2022/09/13 02:15:37;;;;;;;18.52;13.80;;;;;;;;;;4344844;33;20087;-70
2022/09/13 02:18:12;;;;;;;17.90;13.95;;;;;;;;;;4346389;33;20054;-71
2022/09/13 02:20:43;;;;;;;14.60;12.75;;;;;;;;;;4345276;33;20035;-71
2022/09/13 02:23:11;;;;;;;15.25;13.65;;;;;;;;;;4345542;33;20039;-70
2022/09/13 02:25:38;;;;;;;19.90;14.70;;;;;;;;;;4345197;33;20027;-70
2022/09/13 02:28:06;;;;;;;20.05;14.27;;;;;;;;;;4345339;33;20058;-70
2022/09/13 02:30:33;;;;;;;20.37;14.23;;;;;;;;;;4344498;33;20337;-70
2022/09/13 02:33:03;;;;;;;19.25;14.60;;;;;;;;;;4345438;33;20070;-70
2022/09/13 02:35:33;;;;;;;17.77;14.93;;;;;;;;;;4348140;33;20024;-71
2022/09/13 02:38:06;;;;;;;17.67;14.07;;;;;;;;;;4348132;33;20028;-70
2022/09/13 02:40:38;;;;;;;19.67;14.65;;;;;;;;;;4347946;33;20143;-70
2022/09/13 02:43:26;;;;;;;19.87;14.40;;;;;;;;;;4348696;33;20118;-70
2022/09/13 02:45:55;;;;;;;19.65;13.80;;;;;;;;;;4340221;33;20023;-70
2022/09/13 02:48:27;;;;;;;18.85;15.32;;;;;;;;;;4348435;33;20078;-70
2022/09/13 02:51:06;;;;;;;16.30;14.15;;;;;;;;;;4349846;33;20085;-70
2022/09/13 02:53:43;;;;;;;17.48;15.05;;;;;;;;;;4348069;33;20402;-70
2022/09/13 02:56:21;;;;;;;22.02;15.88;;;;;;;;;;4347765;33;20024;-70
2022/09/13 02:58:52;;;;;;;18.25;16.05;;;;;;;;;;4347559;33;20437;-70
2022/09/13 03:01:17;;;;;;;19.45;15.75;;;;;;;;;;4347820;33;20027;-71
2022/09/13 03:03:43;;;;;;;21.48;15.57;;;;;;;;;;4348072;33;20031;-70
2022/09/13 03:06:08;;;;;;;21.27;15.15;;;;;;;;;;4348080;33;20031;-71
2022/09/13 03:08:35;;;;;;;17.23;14.77;;;;;;;;;;4347314;33;20075;-70
2022/09/13 03:11:24;;;;;;;20.85;16.85;;;;;;;;;;4349344;33;20105;-70
2022/09/13 03:14:08;;;;;;;17.83;15.57;;;;;;;;;;4348379;33;20142;-70
2022/09/13 03:16:45;;;;;;;20.75;15.40;;;;;;;;;;4348303;33;20024;-70
2022/09/13 03:19:20;;;;;;;21.48;16.67;;;;;;;;;;4347627;33;20024;-71
2022/09/13 03:21:53;;;;;;;20.25;15.77;;;;;;;;;;4347875;33;20027;-70
2022/09/13 03:24:29;;;;;;;18.85;15.40;;;;;;;;;;4348221;33;20054;-70
2022/09/13 03:26:54;;;;;;;25.00;16.45;;;;;;;;;;4347922;33;20024;-70
2022/09/13 03:29:26;;;;;;;22.17;16.10;;;;;;;;;;4347632;33;20143;-69
2022/09/13 03:32:00;;;;;;;17.45;15.65;;;;;;;;;;4347835;33;20115;-70
2022/09/13 03:34:44;;;;;;;19.35;15.98;;;;;;;;;;4347360;33;20024;-70
2022/09/13 03:37:24;;;;;;;23.08;17.35;;;;;;;;;;4348167;33;20031;-70
2022/09/13 03:40:08;;;;;;;18.15;16.20;;;;;;;;;;4346938;33;20054;-70
2022/09/13 03:42:33;;;;;;;21.62;16.27;;;;;;;;;;4347520;33;20074;-70
2022/09/13 03:45:00;;;;;;;20.73;18.60;;;;;;;;;;4346947;33;20058;-69
2022/09/13 03:47:26;;;;;;;23.95;20.30;;;;;;;;;;4346867;33;20128;-69
2022/09/13 03:49:52;;;;;;;26.12;20.05;;;;;;;;;;4347012;33;20055;-69
2022/09/13 03:52:18;;;;;;;26.02;20.30;;;;;;;;;;4347162;33;20032;-69
2022/09/13 03:54:43;;;;;;;29.05;20.67;;;;;;;;;;4346738;33;20027;-70
2022/09/13 03:57:20;;;;;;;21.50;17.92;;;;;;;;;;4346788;33;20035;-70
2022/09/13 03:59:47;;;;;;;23.87;19.12;;;;;;;;;;4347470;33;20024;-70
2022/09/13 04:02:12;;;;;;;21.70;18.42;;;;;;;;;;4347001;33;20027;-70
2022/09/13 04:04:39;;;;;;;27.75;22.62;;;;;;;;;;4347871;33;20339;-70
2022/09/13 04:07:04;;;;;;;27.08;20.27;;;;;;;;;;4347978;33;20191;-70
2022/09/13 04:09:30;;;;;;;23.67;19.58;;;;;;;;;;4347707;33;20059;-70
2022/09/13 04:11:56;;;;;;;25.12;21.60;;;;;;;;;;4347361;33;20079;-70
2022/09/13 04:14:25;;;;;;;24.63;19.62;;;;;;;;;;4347205;33;20039;-70
2022/09/13 04:16:50;;;;;;;27.70;20.42;;;;;;;;;;4348438;33;20089;-70
2022/09/13 04:19:15;;;;;;;31.60;21.75;;;;;;;;;;4348072;33;20047;-69
2022/09/13 04:21:41;;;;;;;29.52;22.37;;;;;;;;;;4346714;33;20453;-70
2022/09/13 04:24:06;;;;;;;31.17;24.08;;;;;;;;;;4346519;33;20405;-70
2022/09/13 04:26:33;;;;;;;33.50;24.48;;;;;;;;;;4347078;33;20094;-69
2022/09/13 04:28:59;;;;;;;36.08;23.75;;;;;;;;;;4346106;33;20427;-70
2022/09/13 04:31:24;;;;;;;32.30;23.30;;;;;;;;;;4346097;33;20036;-70
2022/09/13 04:33:49;;;;;;;29.83;23.73;;;;;;;;;;4346451;33;20055;-70
2022/09/13 04:36:15;;;;;;;33.72;23.95;;;;;;;;;;4346742;33;20402;-69
2022/09/13 04:38:41;;;;;;;31.27;24.83;;;;;;;;;;4346223;33;20059;-70
2022/09/13 04:41:08;;;;;;;29.63;22.85;;;;;;;;;;4346013;33;20066;-70
2022/09/13 04:43:33;;;;;;;28.80;22.55;;;;;;;;;;4345875;33;20105;-70
2022/09/13 04:46:00;;;;;;;32.42;22.37;;;;;;;;;;4347066;33;20401;-70
2022/09/13 04:48:25;;;;;;;29.08;23.33;;;;;;;;;;4347439;33;20131;-70
2022/09/13 04:50:50;;;;;;;27.10;22.25;;;;;;;;;;4347942;33;20031;-70
2022/09/13 04:53:16;;;;;;;28.58;21.42;;;;;;;;;;4346233;33;20077;-70
2022/09/13 04:55:42;;;;;;;27.55;22.02;;;;;;;;;;4346577;33;20413;-70
2022/09/13 04:58:07;;;;;;;29.50;22.58;;;;;;;;;;4345927;33;20024;-70
2022/09/13 05:00:32;;;;;;;29.10;21.12;;;;;;;;;;4346086;33;20028;-70
2022/09/13 05:03:01;;;;;;;25.15;19.83;;;;;;;;;;4345699;33;20390;-70
2022/09/13 05:05:35;;;;;;;29.08;21.75;;;;;;;;;;4344515;33;20065;-70
2022/09/13 05:08:01;;;;;;;27.05;21.33;;;;;;;;;;4343357;33;20114;-69
2022/09/13 05:10:26;;;;;;;31.05;19.70;;;;;;;;;;4347212;33;20410;-70
2022/09/13 05:12:52;;;;;;;29.48;21.35;;;;;;;;;;4345567;33;20425;-69
2022/09/13 05:15:17;;;;;;;25.62;20.25;;;;;;;;;;4346302;33;20050;-70
2022/09/13 05:17:42;;;;;;;23.60;20.02;;;;;;;;;;4346039;33;20086;-69
2022/09/13 05:20:08;;;;;;;32.17;19.65;;;;;;;;;;4346126;33;20319;-70
2022/09/13 05:22:36;;;;;;;26.62;19.15;;;;;;;;;;4345790;33;20054;-70
2022/09/13 05:25:26;;;;;;;21.65;17.60;;;;;;;;;;4345712;33;20331;-70
2022/09/13 05:27:52;;;;;;;26.67;18.75;;;;;;;;;;4345481;33;20024;-70
2022/09/13 05:30:17;;;;;;;24.95;16.55;;;;;;;;;;4345845;33;20423;-70
2022/09/13 05:32:43;;;;;;;21.20;16.65;;;;;;;;;;4346095;33;20035;-70
2022/09/13 05:35:08;;;;;;;20.23;16.87;;;;;;;;;;4344736;33;20340;-70
2022/09/13 05:37:34;;;;;;;23.95;16.02;;;;;;;;;;4345176;33;20119;-71
2022/09/13 05:39:59;;;;;;;23.80;16.75;;;;;;;;;;4345412;33;20067;-72
2022/09/13 05:42:24;;;;;;;21.58;17.00;;;;;;;;;;4346355;33;20339;-71
2022/09/13 05:44:58;;;;;;;21.58;16.77;;;;;;;;;;4346232;33;20359;-70
2022/09/13 05:47:24;;;;;;;26.02;17.60;;;;;;;;;;4344803;33;20046;-71
2022/09/13 05:49:49;;;;;;;23.15;18.60;;;;;;;;;;4344030;33;20114;-70
2022/09/13 05:52:14;;;;;;;24.77;18.30;;;;;;;;;;4345854;33;20035;-70
2022/09/13 05:54:40;;;;;;;23.65;18.77;;;;;;;;;;4346307;33;20373;-70
2022/09/13 05:57:05;;;;;;;25.75;18.40;;;;;;;;;;4345678;33;20411;-70
2022/09/13 05:59:31;;;;;;;26.33;20.40;;;;;;;;;;4345494;33;20412;-70
2022/09/13 06:02:31;;;;;;;32.28;20.85;;;;;;;;;;4345539;33;20053;-70
2022/09/13 06:04:56;;;;;;;32.55;21.90;;;;;;;;;;4345442;33;20031;-70
2022/09/13 06:07:21;;;;;;;29.90;21.98;;;;;;;;;;4345265;33;20058;-70
2022/09/13 06:09:47;;;;;;;29.83;21.58;;;;;;;;;;4347669;33;20024;-70
2022/09/13 06:12:12;;;;;;;28.27;22.95;;;;;;;;;;4348933;33;20423;-70
2022/09/13 06:14:37;;;;;;;33.75;24.87;;;;;;;;;;4348024;33;20028;-70
2022/09/13 06:17:02;;;;;;;27.45;22.83;;;;;;;;;;4348753;33;20303;-69
2022/09/13 06:19:28;;;;;;;26.27;22.60;;;;;;;;;;4348775;33;20024;-70
2022/09/13 06:21:53;;;;;;;34.95;24.30;;;;;;;;;;4348043;33;20087;-70
2022/09/13 06:24:18;;;;;;;31.92;22.35;;;;;;;;;;4348630;33;20106;-70
2022/09/13 06:26:46;;;;;;;30.92;22.50;;;;;;;;;;4335352;33;20028;-70
2022/09/13 06:29:20;;;;;;;30.30;23.10;;;;;;;;;;4349084;33;20067;-70
2022/09/13 06:31:53;;;;;;;28.83;21.60;;;;;;;;;;4348795;33;20020;-70
2022/09/13 06:34:18;;;;;;;31.70;24.50;;;;;;;;;;4348454;33;20054;-70
2022/09/13 06:36:46;;;;;;;28.45;21.62;;;;;;;;;;4348028;33;20024;-70
2022/09/13 06:39:11;;;;;;;29.63;19.90;;;;;;;;;;4347613;33;20035;-70
2022/09/13 06:41:36;;;;;;;36.00;20.30;;;;;;;;;;4348019;33;20035;-70
2022/09/13 06:44:02;;;;;;;27.23;21.37;;;;;;;;;;4347648;33;20035;-69
2022/09/13 06:46:28;;;;;;;25.80;20.40;;;;;;;;;;4346883;33;20052;-70
2022/09/13 06:48:54;;;;;;;25.52;20.65;;;;;;;;;;4347554;33;20096;-71
2022/09/13 06:51:20;;;;;;;23.77;18.52;;;;;;;;;;4347813;33;20050;-70
2022/09/13 06:53:47;;;;;;;24.33;17.52;;;;;;;;;;4348077;33;20039;-70
2022/09/13 06:56:19;;;;;;;19.55;15.60;;;;;;;;;;4348005;33;20028;-69
2022/09/13 06:58:45;;;;;;;30.60;17.40;;;;;;;;;;4347596;33;20032;-70
2022/09/13 07:01:12;;;;;;;17.75;14.98;;;;;;;;;;4348568;33;20122;-69
2022/09/13 07:03:38;;;;;;;22.13;15.45;;;;;;;;;;4347981;33;20434;-71
2022/09/13 07:06:10;;;;;;;25.60;16.87;;;;;;;;;;4347738;33;20031;-70
2022/09/13 07:08:36;;;;;;;14.77;12.32;;;;;;;;;;4347735;33;20058;-70
2022/09/13 07:11:01;;;;;;;14.05;11.77;;;;;;;;;;4347992;33;20410;-70
2022/09/13 07:13:26;;;;;;;14.90;11.65;;;;;;;;;;4346389;33;20044;-70
2022/09/13 07:15:52;;;;;;;18.02;12.25;;;;;;;;;;4348150;33;20024;-70
2022/09/13 07:18:17;;;;;;;14.23;11.00;;;;;;;;;;4347550;33;20078;-70
2022/09/13 07:20:42;;;;;;;16.65;12.48;;;;;;;;;;4347024;33;20047;-70
2022/09/13 07:23:08;;;;;;;14.07;11.10;;;;;;;;;;4348042;33;20090;-70
2022/09/13 07:25:33;;;;;;;11.98;10.20;;;;;;;;;;4347299;33;20086;-70
2022/09/13 07:27:58;;;;;;;13.23;10.18;;;;;;;;;;4347202;33;20024;-70
2022/09/13 07:30:27;;;;;;;14.15;12.25;;;;;;;;;;4348582;33;20023;-70
2022/09/13 07:32:52;;;;;;;14.48;11.43;;;;;;;;;;4348906;33;20032;-71
2022/09/13 07:35:18;;;;;;;16.33;11.65;;;;;;;;;;4347307;33;20086;-70
2022/09/13 07:37:45;;;;;;;16.23;11.95;;;;;;;;;;4348376;33;20024;-70
2022/09/13 07:40:11;;;;;;;19.83;12.35;;;;;;;;;;4347084;33;20063;-70
2022/09/13 07:42:36;;;;;;;13.20;11.07;;;;;;;;;;4347852;33;20477;-70
2022/09/13 07:45:01;;;;;;;16.52;11.12;;;;;;;;;;4334304;33;20043;-70
2022/09/13 07:47:27;;;;;;;12.52;7.15;;;;;;;;;;4347463;33;20092;-70
2022/09/13 07:49:52;;;;;;;11.43;7.50;;;;;;;;;;4346800;33;20049;-70
2022/09/13 07:52:17;;;;;;;6.20;5.60;;;;;;;;;;4347068;33;20081;-70
2022/09/13 07:54:43;;;;;;;8.85;5.50;;;;;;;;;;4347062;33;20378;-70
2022/09/13 07:57:08;;;;;;;7.35;5.40;;;;;;;;;;4347928;33;20047;-70
2022/09/13 07:59:33;;;;;;;7.93;4.72;;;;;;;;;;4346732;33;20031;-70
2022/09/13 08:01:58;;;;;;;8.10;4.93;;;;;;;;;;4347057;33;20091;-71
2022/09/13 08:04:24;;;;;;;8.57;5.00;;;;;;;;;;4347381;33;20369;-70
2022/09/13 08:06:49;;;;;;;10.65;5.90;;;;;;;;;;4346892;33;20040;-70
2022/09/13 08:09:15;;;;;;;8.63;5.28;;;;;;;;;;4346773;33;20468;-71
2022/09/13 08:11:43;;;;;;;10.23;5.35;;;;;;;;;;4347546;33;20077;-71
2022/09/13 08:14:10;;;;;;;12.50;5.85;;;;;;;;;;4346943;33;20058;-71
2022/09/13 08:16:35;;;;;;;8.60;5.30;;;;;;;;;;4346589;33;20036;-70
2022/09/13 08:19:02;;;;;;;11.15;6.12;;;;;;;;;;4346674;33;20023;-70
2022/09/13 08:21:30;;;;;;;12.13;6.20;;;;;;;;;;4345596;33;20027;-70
2022/09/13 08:23:59;;;;;;;9.57;5.72;;;;;;;;;;4346686;33;20065;-70
2022/09/13 08:26:24;;;;;;;10.57;5.45;;;;;;;;;;4347199;33;20480;-70
2022/09/13 08:28:54;;;;;;;12.48;5.90;;;;;;;;;;4347242;33;20063;-70
2022/09/13 08:31:21;;;;;;;8.75;5.62;;;;;;;;;;4346310;33;20081;-69
2022/09/13 08:33:47;;;;;;;8.98;4.60;;;;;;;;;;4346361;33;20486;-69
2022/09/13 08:36:13;;;;;;;6.72;4.30;;;;;;;;;;4346958;33;20058;-69
2022/09/13 08:38:38;;;;;;;6.75;3.60;;;;;;;;;;4346032;33;20027;-69
2022/09/13 08:41:24;;;;;;;10.77;3.85;;;;;;;;;;4345982;33;20131;-70
2022/09/13 08:43:49;;;;;;;7.20;2.87;;;;;;;;;;4346307;33;20162;-70
2022/09/13 08:46:33;;;;;;;7.30;3.35;;;;;;;;;;4346064;33;20129;-71
2022/09/13 08:49:00;;;;;;;6.43;3.03;;;;;;;;;;4346416;33;20366;-71
2022/09/13 08:51:46;;;;;;;5.82;3.12;;;;;;;;;;4346354;33;20424;-71
2022/09/13 08:54:12;;;;;;;6.05;2.53;;;;;;;;;;4346556;32;20075;-71
2022/09/13 08:56:43;;;;;;;4.85;2.20;;;;;;;;;;4345973;33;20104;-70
2022/09/13 08:59:25;;;;;;;6.97;2.30;;;;;;;;;;4346749;33;20046;-71
2022/09/13 09:02:03;;;;;;;5.35;2.20;;;;;;;;;;4347249;33;20023;-71
2022/09/13 09:04:54;;;;;;;3.12;1.90;;;;;;;;;;4346161;33;20471;-71
2022/09/13 09:07:23;;;;;;;3.15;1.90;;;;;;;;;;4343839;33;20032;-70
2022/09/13 09:09:54;;;;;;;4.95;2.05;;;;;;;;;;4345818;33;20028;-71
2022/09/13 09:12:28;;;;;;;4.10;1.90;;;;;;;;;;4346605;33;20073;-70
2022/09/13 09:14:57;;;;;;;2.45;1.42;;;;;;;;;;4346341;33;20023;-71
2022/09/13 09:17:25;;;;;;;3.40;2.15;;;;;;;;;;4345673;33;20027;-70
2022/09/13 09:20:02;;;;;;;3.95;1.75;;;;;;;;;;4346434;33;20086;-71
2022/09/13 09:22:33;;;;;;;5.40;2.35;;;;;;;;;;4345983;33;20410;-70
2022/09/13 09:24:59;;;;;;;3.92;2.05;;;;;;;;;;4346071;33;20327;-71
2022/09/13 09:30:37;;;;;;;7.45;2.55;;;;;;;;;;4295091;33;20041;-71
2022/09/13 09:33:26;;;;;;;4.45;2.08;;;;;;;;;;4342211;33;20097;-71
2022/09/13 09:35:57;;;;;;;3.83;1.80;;;;;;;;;;4329017;33;20019;-70
2022/09/13 09:38:30;;;;;;;3.62;1.75;;;;;;;;;;4345842;33;20085;-69
2022/09/13 09:40:56;;;;;;;8.10;1.98;;;;;;;;;;4345235;33;20052;-69
2022/09/13 09:43:32;;;;;;;5.35;1.83;;;;;;;;;;4345683;33;20031;-70
2022/09/13 09:45:59;;;;;;;4.72;2.15;;;;;;;;;;4346503;33;20070;-70
2022/09/13 09:48:27;;;;;;;5.03;1.50;;;;;;;;;;4345704;33;20118;-70
2022/09/13 09:50:57;;;;;;;3.67;1.85;;;;;;;;;;4343970;33;20465;-70
2022/09/13 09:53:27;;;;;;;3.12;1.33;;;;;;;;;;4345868;33;20046;-71
2022/09/13 09:56:04;;;;;;;6.75;1.90;;;;;;;;;;4345490;33;20386;-70
2022/09/13 09:58:38;;;;;;;4.75;1.60;;;;;;;;;;4344845;33;20028;-72
2022/09/13 10:01:05;;;;;;;4.35;1.65;;;;;;;;;;4343918;33;20032;-70
2022/09/13 10:03:31;;;;;;;5.22;1.62;;;;;;;;;;4344810;33;20063;-70
2022/09/13 10:06:27;;;;;;;5.05;1.90;;;;;;;;;;4345168;33;20031;-70
2022/09/13 10:08:57;;;;;;;3.62;1.55;;;;;;;;;;4335581;33;20054;-71
2022/09/13 10:11:23;;;;;;;8.15;1.73;;;;;;;;;;4344969;33;20028;-70
2022/09/13 10:14:03;;;;;;;4.82;1.50;;;;;;;;;;4345710;33;20053;-70
2022/09/13 10:16:29;;;;;;;9.13;2.10;;;;;;;;;;4345569;33;20081;-69
2022/09/13 10:19:15;;;;;;;7.68;2.08;;;;;;;;;;4345143;33;20054;-70
2022/09/13 10:21:40;;;;;;;9.38;2.08;;;;;;;;;;4345418;33;20111;-70
2022/09/13 10:24:16;;;;;;;7.53;1.80;;;;;;;;;;4343889;33;20028;-70
2022/09/13 10:26:41;;;;;;;4.95;1.95;;;;;;;;;;4344971;33;20074;-72
2022/09/13 10:29:06;;;;;;;8.05;2.03;;;;;;;;;;4344186;33;20023;-72
2022/09/13 10:31:36;;;;;;;4.60;1.42;;;;;;;;;;4345331;33;20019;-71
2022/09/13 10:34:21;;;;;;;5.85;1.75;;;;;;;;;;4344596;33;20397;-71
2022/09/13 10:36:56;;;;;;;5.72;1.70;;;;;;;;;;4345873;33;20028;-71
2022/09/13 10:39:22;;;;;;;5.93;1.58;;;;;;;;;;4344698;33;20472;-71
2022/09/13 10:41:50;;;;;;;2.42;1.60;;;;;;;;;;4345441;33;20102;-71
2022/09/13 10:44:25;;;;;;;9.20;1.80;;;;;;;;;;4346580;33;20382;-71
2022/09/13 10:46:50;;;;;;;5.62;1.52;;;;;;;;;;4344466;33;20036;-71
2022/09/13 10:49:46;;;;;;;6.82;1.75;;;;;;;;;;4345387;33;20098;-70
2022/09/13 10:52:23;;;;;;;6.75;1.95;;;;;;;;;;4345907;33;20427;-70
2022/09/13 10:54:49;;;;;;;6.18;1.95;;;;;;;;;;4344852;33;20023;-71
2022/09/13 10:57:33;;;;;;;6.05;1.77;;;;;;;;;;4347421;33;20081;-70
2022/09/13 10:59:59;;;;;;;5.85;1.92;;;;;;;;;;4348009;33;20111;-71
2022/09/13 11:02:53;;;;;;;8.02;1.67;;;;;;;;;;4343410;33;20705;-71
2022/09/13 11:05:25;;;;;;;4.10;1.80;;;;;;;;;;4324809;33;20035;-72
2022/09/13 11:08:06;;;;;;;3.97;1.50;;;;;;;;;;4333063;33;20063;-71
2022/09/13 11:10:41;;;;;;;6.22;1.80;;;;;;;;;;4332938;33;20060;-71
2022/09/13 11:13:18;;;;;;;5.90;1.67;;;;;;;;;;4333238;33;20020;-70
2022/09/13 11:15:52;;;;;;;4.37;1.73;;;;;;;;;;4334075;33;20028;-70
2022/09/13 11:18:36;;;;;;;4.57;1.87;;;;;;;;;;4332495;33;20070;-72
2022/09/13 11:21:20;;;;;;;5.70;1.75;;;;;;;;;;4332930;33;20075;-70
2022/09/13 11:23:55;;;;;;;4.05;1.70;;;;;;;;;;4333165;33;20036;-70
2022/09/13 11:26:38;;;;;;;7.57;2.17;;;;;;;;;;4333093;33;20032;-70
2022/09/13 11:29:26;;;;;;;10.27;2.25;;;;;;;;;;4332368;33;20049;-70
2022/09/13 11:31:57;;;;;;;3.87;1.92;;;;;;;;;;4333266;33;20113;-70
2022/09/13 11:34:41;;;;;;;3.25;1.98;;;;;;;;;;4333794;33;20028;-71
2022/09/13 11:37:12;;;;;;;6.97;1.92;;;;;;;;;;4333521;33;20028;-71
2022/09/13 11:39:40;;;;;;;3.70;1.30;;;;;;;;;;4332137;33;20020;-71
2022/09/13 11:42:25;;;;;;;3.47;1.33;;;;;;;;;;4319170;33;20062;-71
2022/09/13 11:44:56;;;;;;;1.80;1.10;;;;;;;;;;4305194;33;20154;-72
2022/09/13 11:47:53;;;;;;;5.45;1.75;;;;;;;;;;4305399;33;20394;-69
2022/09/13 11:50:25;;;;;;;4.30;1.90;;;;;;;;;;4293388;33;20430;-70
2022/09/13 11:53:12;;;;;;;4.35;1.45;;;;;;;;;;4318021;33;20067;-71
2022/09/13 11:55:41;;;;;;;3.62;1.30;;;;;;;;;;4319494;33;20387;-70
2022/09/13 11:58:12;;;;;;;3.50;1.40;;;;;;;;;;4317633;33;20086;-70
2022/09/13 12:00:40;;;;;;;6.00;1.35;;;;;;;;;;4317639;33;20055;-70
2022/09/13 12:03:14;;;;;;;3.85;1.20;;;;;;;;;;4317188;33;20050;-71
2022/09/13 12:05:51;;;;;;;7.50;1.60;;;;;;;;;;4317123;33;20071;-71
2022/09/13 12:08:21;;;;;;;3.53;1.37;;;;;;;;;;4318599;33;20032;-69
2022/09/13 12:10:57;;;;;;;6.05;1.27;;;;;;;;;;4317391;33;20027;-70
2022/09/13 12:13:35;;;;;;;2.65;1.45;;;;;;;;;;4317409;33;20399;-70
2022/09/13 12:16:05;;;;;;;3.35;1.05;;;;;;;;;;4317318;33;20064;-71
2022/09/13 12:18:39;;;;;;;3.37;1.40;;;;;;;;;;4317641;33;20064;-72
2022/09/13 12:21:10;;;;;;;4.68;1.30;;;;;;;;;;4304658;33;20020;-70
2022/09/13 12:23:56;;;;;;;5.18;1.70;;;;;;;;;;4303433;33;20031;-72
2022/09/13 12:26:37;;;;;;;2.87;1.37;;;;;;;;;;4318031;33;20016;-72
2022/09/13 12:29:23;;;;;;;3.85;1.20;;;;;;;;;;4316738;33;20025;-71
2022/09/13 12:31:48;;;;;;;4.95;1.48;;;;;;;;;;4317653;33;20316;-70
2022/09/13 12:34:25;;;;;;;4.87;1.70;;;;;;;;;;4305139;33;20078;-71
2022/09/13 12:37:00;;;;;;;4.47;1.60;;;;;;;;;;4317172;33;20102;-71
2022/09/13 12:39:33;;;;;;;4.17;1.60;;;;;;;;;;4316944;33;20044;-71
2022/09/13 12:42:17;;;;;;;5.97;1.37;;;;;;;;;;4329627;33;20110;-71
2022/09/13 12:44:45;;;;;;;4.80;1.35;;;;;;;;;;4331736;33;20066;-71
2022/09/13 12:47:29;;;;;;;4.25;1.58;;;;;;;;;;4330987;33;20083;-71
2022/09/13 12:50:00;;;;;;;6.90;1.77;;;;;;;;;;4331761;33;20094;-69
2022/09/13 12:52:55;;;;;;;4.47;1.40;;;;;;;;;;4331044;33;20028;-72
2022/09/13 12:55:21;;;;;;;3.80;1.35;;;;;;;;;;4304021;33;20106;-72
2022/09/13 12:58:12;;;;;;;5.55;1.95;;;;;;;;;;4331913;33;20024;-71
2022/09/13 13:00:42;;;;;;;1.85;1.10;;;;;;;;;;4318936;33;20028;-71
2022/09/13 13:03:10;;;;;;;3.55;1.40;;;;;;;;;;4330774;33;20031;-73
2022/09/13 13:05:41;;;;;;;6.28;1.62;;;;;;;;;;4330818;33;20394;-72
2022/09/13 13:08:19;;;;;;;6.97;1.92;;;;;;;;;;4331761;33;20071;-71
2022/09/13 13:10:58;;;;;;;6.40;1.62;;;;;;;;;;4331822;33;20020;-71
2022/09/13 13:13:31;;;;;;;3.30;1.40;;;;;;;;;;4331191;33;20237;-70
2022/09/13 13:15:58;;;;;;;3.83;1.40;;;;;;;;;;4331104;33;20281;-70
2022/09/13 13:18:27;;;;;;;3.08;1.27;;;;;;;;;;4331135;33;20316;-70
2022/09/13 13:20:52;;;;;;;3.50;1.33;;;;;;;;;;4330858;33;20101;-70
2022/09/13 13:23:28;;;;;;;4.30;1.48;;;;;;;;;;4330742;33;20350;-71
2022/09/13 13:25:57;;;;;;;3.67;1.10;;;;;;;;;;4330949;33;20077;-71
2022/09/13 13:28:41;;;;;;;4.45;1.40;;;;;;;;;;4330605;33;20032;-71
2022/09/13 13:31:07;;;;;;;3.12;1.25;;;;;;;;;;4342946;33;20035;-71
2022/09/13 13:33:44;;;;;;;4.25;1.40;;;;;;;;;;4330600;33;20148;-71
2022/09/13 13:36:36;;;;;;;4.12;1.42;;;;;;;;;;4331348;33;20063;-71
2022/09/13 13:39:10;;;;;;;7.40;1.73;;;;;;;;;;4329407;33;20079;-70
2022/09/13 13:41:38;;;;;;;4.47;1.20;;;;;;;;;;4342049;33;20031;-71
2022/09/13 13:44:16;;;;;;;4.20;1.35;;;;;;;;;;4330798;33;20055;-71
2022/09/13 13:46:42;;;;;;;4.05;1.30;;;;;;;;;;4330548;33;20079;-71
2022/09/13 13:49:26;;;;;;;5.70;1.42;;;;;;;;;;4341688;33;20032;-70
2022/09/13 13:52:21;;;;;;;4.90;1.52;;;;;;;;;;4330965;33;20118;-70
2022/09/13 13:54:52;;;;;;;4.25;1.05;;;;;;;;;;4324176;33;20078;-70
2022/09/13 13:57:31;;;;;;;4.68;1.70;;;;;;;;;;4330427;33;20029;-70
2022/09/13 14:00:03;;;;;;;5.90;1.33;;;;;;;;;;4330905;33;20078;-71
2022/09/13 14:02:52;;;;;;;2.97;1.10;;;;;;;;;;4330566;33;20024;-70
2022/09/13 14:05:36;;;;;;;5.82;1.67;;;;;;;;;;4315606;33;20054;-70
2022/09/13 14:08:01;;;;;;;4.80;1.17;;;;;;;;;;4341388;33;20402;-71
2022/09/13 14:10:26;;;;;;;6.23;1.33;;;;;;;;;;4330566;33;20047;-71
2022/09/13 14:13:14;;;;;;;5.50;1.70;;;;;;;;;;4331594;33;20113;-72
2022/09/13 14:15:50;;;;;;;4.80;1.33;;;;;;;;;;4330470;33;20408;-71
2022/09/13 14:18:15;;;;;;;;;;;;;;;;;;4331484;33;20012;-72
2022/09/13 14:20:58;;;;;;;4.97;1.60;;;;;;;;;;4331364;33;19981;-73
2022/09/13 14:23:24;;;;;;;4.50;1.20;;;;;;;;;;4329646;33;20063;-72
2022/09/13 14:25:59;;;;;;;8.40;1.73;;;;;;;;;;4329986;33;20099;-70
2022/09/13 14:28:25;;;;;;;6.25;1.20;;;;;;;;;;4317440;33;20032;-71
2022/09/13 14:30:57;;;;;;;4.10;1.20;;;;;;;;;;4333100;33;20382;-71
2022/09/13 14:33:30;;;;;;;5.68;1.33;;;;;;;;;;4333269;33;20350;-71
2022/09/13 14:35:57;;;;;;;7.72;1.50;;;;;;;;;;4333373;33;20025;-72
2022/09/13 14:38:31;;;;;;;6.37;1.60;;;;;;;;;;4319897;33;20028;-72
2022/09/13 14:40:58;;;;;;;5.20;2.00;;;;;;;;;;4333342;33;20078;-72
2022/09/13 14:43:24;;;;;;;8.68;1.80;;;;;;;;;;4332731;33;20033;-71
2022/09/13 14:45:56;;;;;;;6.50;1.92;;;;;;;;;;4333089;33;20401;-71
2022/09/13 14:48:28;;;;;;;4.15;1.50;;;;;;;;;;4332855;33;20035;-71
2022/09/13 14:50:55;;;;;;;6.35;1.60;;;;;;;;;;4353294;32;20077;-71
2022/09/13 14:53:23;;;;;;;5.87;1.62;;;;;;;;;;4347117;33;20078;-71
2022/09/13 14:55:55;;;;;;;7.45;2.00;;;;;;;;;;4348033;33;20028;-71